createdAt,value
2018-07-19T00:00:59.292Z,15.80
2018-07-19T00:03:27.325Z,15.80
2018-07-19T00:05:55.332Z,15.70
2018-07-19T00:08:23.348Z,15.70
2018-07-19T00:10:51.448Z,15.70
2018-07-19T00:13:19.448Z,15.70
2018-07-19T00:15:47.459Z,15.70
2018-07-19T00:18:15.492Z,15.70
2018-07-19T00:20:43.535Z,15.70
2018-07-19T00:25:39.374Z,15.60
2018-07-19T00:30:35.333Z,15.60
2018-07-19T00:33:03.365Z,15.60
2018-07-19T00:35:31.367Z,15.50
2018-07-19T00:37:59.375Z,15.50
2018-07-19T00:40:27.380Z,15.50
2018-07-19T00:42:55.404Z,15.40
2018-07-19T00:45:23.405Z,15.40
2018-07-19T00:47:51.423Z,15.30
2018-07-19T00:50:19.456Z,15.40
2018-07-19T00:52:47.483Z,15.30
2018-07-19T00:55:15.501Z,15.40
2018-07-19T01:00:11.337Z,15.30
2018-07-19T01:02:39.368Z,15.20
2018-07-19T01:05:07.389Z,15.20
2018-07-19T01:07:35.403Z,15.20
2018-07-19T01:10:03.457Z,15.20
2018-07-19T01:12:31.479Z,15.20
2018-07-19T01:14:59.484Z,15.20
2018-07-19T01:17:27.488Z,15.20
2018-07-19T01:19:55.505Z,15.20
2018-07-19T01:22:23.516Z,15.20
2018-07-19T01:24:51.603Z,15.10
2018-07-19T01:27:19.627Z,15.10
2018-07-19T01:29:47.640Z,15.10
2018-07-19T01:32:15.665Z,15.10
2018-07-19T01:34:43.940Z,15.00
2018-07-19T01:37:11.947Z,15.00
2018-07-19T01:39:39.992Z,15.00
2018-07-19T01:42:21.223Z,15.00
2018-07-19T01:44:49.241Z,15.00
2018-07-19T01:47:17.303Z,15.00
2018-07-19T01:49:46.070Z,15.00
2018-07-19T01:52:14.402Z,14.90
2018-07-19T01:54:42.487Z,14.80
2018-07-19T01:57:11.795Z,14.80
2018-07-19T01:59:40.563Z,14.80
2018-07-19T02:02:08.605Z,14.80
2018-07-19T02:04:36.640Z,14.70
2018-07-19T02:09:32.576Z,14.80
2018-07-19T02:14:28.671Z,14.80
2018-07-19T02:16:56.736Z,14.80
2018-07-19T02:19:24.769Z,14.90
2018-07-19T02:21:52.808Z,14.90
2018-07-19T02:24:20.856Z,14.90
2018-07-19T02:26:48.901Z,14.80
2018-07-19T02:29:16.949Z,14.90
2018-07-19T02:31:45.005Z,14.90
2018-07-19T02:34:13.049Z,14.80
2018-07-19T02:36:41.081Z,14.90
2018-07-19T02:39:11.859Z,14.90
2018-07-19T02:41:40.143Z,14.90
2018-07-19T02:44:09.316Z,14.90
2018-07-19T02:46:38.343Z,14.90
2018-07-19T02:51:34.347Z,14.80
2018-07-19T02:54:02.391Z,14.80
2018-07-19T02:56:30.424Z,14.70
2018-07-19T03:01:26.293Z,14.70
2018-07-19T03:03:54.328Z,14.70
2018-07-19T03:08:50.202Z,14.70
2018-07-19T03:11:18.240Z,14.60
2018-07-19T03:16:14.133Z,14.60
2018-07-19T03:18:42.168Z,14.60
2018-07-19T03:21:10.243Z,14.60
2018-07-19T03:23:38.298Z,14.60
2018-07-19T03:26:06.351Z,14.70
2018-07-19T03:31:02.223Z,14.70
2018-07-19T03:33:30.241Z,14.70
2018-07-19T03:35:58.290Z,14.70
2018-07-19T03:38:26.383Z,14.70
2018-07-19T03:40:54.424Z,14.70
2018-07-19T03:43:22.520Z,14.70
2018-07-19T03:45:50.575Z,14.70
2018-07-19T03:48:18.624Z,14.70
2018-07-19T03:50:46.676Z,14.70
2018-07-19T03:53:14.717Z,14.70
2018-07-19T03:55:42.748Z,14.70
2018-07-19T03:58:10.776Z,14.70
2018-07-19T04:00:38.828Z,14.70
2018-07-19T04:03:06.879Z,14.70
2018-07-19T04:05:34.935Z,14.70
2018-07-19T04:08:03.016Z,14.70
2018-07-19T04:10:31.050Z,14.80
2018-07-19T04:12:59.089Z,14.90
2018-07-19T04:15:27.163Z,14.90
2018-07-19T04:17:56.204Z,14.90
2018-07-19T04:20:25.607Z,15.00
2018-07-19T04:22:54.395Z,15.00
2018-07-19T04:25:22.783Z,15.10
2018-07-19T04:27:51.067Z,15.10
2018-07-19T04:30:19.153Z,15.20
2018-07-19T04:32:47.188Z,15.20
2018-07-19T04:35:15.276Z,15.10
2018-07-19T04:37:43.295Z,15.10
2018-07-19T04:40:11.324Z,15.10
2018-07-19T04:42:39.376Z,15.30
2018-07-19T04:45:07.413Z,15.30
2018-07-19T04:47:35.444Z,15.20
2018-07-19T04:50:03.700Z,15.20
2018-07-19T04:52:31.763Z,15.20
2018-07-19T04:54:59.837Z,15.30
2018-07-19T04:57:27.891Z,15.40
2018-07-19T04:59:55.925Z,15.40
2018-07-19T05:02:23.975Z,15.30
2018-07-19T05:07:19.968Z,15.50
2018-07-19T05:09:48.383Z,15.50
2018-07-19T05:12:16.451Z,15.60
2018-07-19T05:14:44.735Z,15.60
2018-07-19T05:17:12.900Z,15.70
2018-07-19T05:19:40.969Z,15.70
2018-07-19T05:22:09.023Z,15.80
2018-07-19T05:24:37.061Z,15.70
2018-07-19T05:27:05.116Z,15.70
2018-07-19T05:29:33.192Z,15.70
2018-07-19T05:32:01.259Z,15.80
2018-07-19T05:34:29.398Z,15.90
2018-07-19T05:36:57.397Z,15.90
2018-07-19T05:39:25.483Z,16.10
2018-07-19T05:41:53.547Z,16.20
2018-07-19T05:44:21.595Z,16.20
2018-07-19T05:46:49.640Z,16.30
2018-07-19T05:49:17.676Z,16.30
2018-07-19T05:51:45.723Z,16.40
2018-07-19T05:54:13.805Z,16.60
2018-07-19T05:56:41.856Z,16.60
2018-07-19T05:59:09.896Z,16.60
2018-07-19T06:01:37.945Z,16.60
2018-07-19T06:04:06.016Z,16.70
2018-07-19T06:06:34.073Z,16.80
2018-07-19T06:09:02.098Z,16.70
2018-07-19T06:11:30.139Z,16.80
2018-07-19T06:13:58.156Z,16.80
2018-07-19T06:16:26.236Z,16.80
2018-07-19T06:18:54.280Z,16.70
2018-07-19T06:21:22.319Z,16.80
2018-07-19T06:23:50.333Z,16.90
2018-07-19T06:26:18.423Z,17.00
2018-07-19T06:28:46.458Z,17.20
2018-07-19T06:31:14.804Z,17.30
2018-07-19T06:33:42.856Z,17.30
2018-07-19T06:36:10.878Z,17.40
2018-07-19T06:38:38.938Z,17.50
2018-07-19T06:43:34.831Z,17.50
2018-07-19T06:46:02.892Z,17.40
2018-07-19T06:48:30.916Z,17.40
2018-07-19T06:50:58.939Z,17.50
2018-07-19T06:53:26.972Z,17.50
2018-07-19T06:55:55.048Z,17.50
2018-07-19T06:58:23.087Z,17.70
2018-07-19T07:00:51.131Z,17.80
2018-07-19T07:03:19.156Z,18.00
2018-07-19T07:05:47.361Z,18.00
2018-07-19T07:08:15.485Z,18.20
2018-07-19T07:10:43.536Z,18.30
2018-07-19T07:13:11.559Z,18.30
2018-07-19T07:15:39.584Z,18.20
2018-07-19T07:20:36.340Z,18.30
2018-07-19T07:25:44.348Z,18.60
2018-07-19T07:28:12.395Z,18.70
2018-07-19T07:30:40.443Z,19.00
2018-07-19T07:33:08.473Z,18.80
2018-07-19T07:38:04.335Z,18.80
2018-07-19T07:40:32.381Z,18.90
2018-07-19T07:45:28.452Z,19.00
2018-07-19T07:47:56.532Z,19.10
2018-07-19T07:50:24.568Z,19.10
2018-07-19T07:52:52.635Z,19.20
2018-07-19T07:55:20.856Z,19.30
2018-07-19T07:57:48.885Z,19.50
2018-07-19T08:02:44.772Z,19.40
2018-07-19T08:05:12.804Z,19.50
2018-07-19T08:07:40.844Z,19.60
2018-07-19T08:10:09.068Z,19.80
2018-07-19T08:12:37.116Z,20.00
2018-07-19T08:15:05.176Z,20.10
2018-07-19T08:17:33.406Z,20.30
2018-07-19T08:20:01.444Z,20.20
2018-07-19T08:22:29.736Z,20.30
2018-07-19T08:24:57.803Z,20.40
2018-07-19T08:27:25.812Z,20.30
2018-07-19T08:29:53.844Z,20.40
2018-07-19T08:32:21.936Z,20.50
2018-07-19T08:34:49.992Z,20.60
2018-07-19T08:37:18.064Z,20.80
2018-07-19T08:39:46.095Z,20.80
2018-07-19T08:42:14.339Z,20.90
2018-07-19T08:44:42.508Z,20.90
2018-07-19T08:47:13.735Z,20.60
2018-07-19T08:49:42.425Z,20.50
2018-07-19T08:52:10.460Z,20.50
2018-07-19T08:54:38.754Z,20.50
2018-07-19T08:57:06.789Z,20.70
2018-07-19T08:59:35.027Z,21.00
2018-07-19T09:02:03.486Z,21.20
2018-07-19T09:04:31.524Z,21.20
2018-07-19T09:06:59.568Z,21.30
2018-07-19T09:11:55.479Z,21.20
2018-07-19T09:14:23.513Z,21.20
2018-07-19T09:16:51.556Z,21.40
2018-07-19T09:19:19.608Z,21.60
2018-07-19T09:21:47.632Z,21.60
2018-07-19T09:24:15.676Z,21.60
2018-07-19T09:26:43.727Z,21.60
2018-07-19T09:29:11.736Z,21.70
2018-07-19T09:31:39.808Z,21.80
2018-07-19T09:34:08.023Z,21.90
2018-07-19T09:36:36.096Z,22.00
2018-07-19T09:41:34.255Z,21.90
2018-07-19T09:44:02.308Z,22.00
2018-07-19T09:46:30.332Z,21.80
2018-07-19T09:51:26.201Z,21.60
2018-07-19T09:53:54.239Z,21.70
2018-07-19T09:58:50.115Z,22.00
2018-07-19T10:01:18.168Z,22.20
2018-07-19T10:03:46.792Z,22.20
2018-07-19T10:06:15.057Z,22.30
2018-07-19T10:08:43.518Z,22.20
2018-07-19T10:11:11.552Z,22.10
2018-07-19T10:13:39.681Z,22.10
2018-07-19T10:16:07.775Z,22.20
2018-07-19T10:18:35.824Z,22.30
2018-07-19T10:21:04.282Z,22.40
2018-07-19T10:23:32.334Z,22.70
2018-07-19T10:26:00.315Z,22.90
2018-07-19T10:28:28.389Z,23.00
2018-07-19T10:33:24.360Z,23.10
2018-07-19T10:35:52.404Z,23.10
2018-07-19T10:38:20.485Z,23.20
2018-07-19T10:40:48.481Z,23.20
2018-07-19T10:43:16.556Z,23.20
2018-07-19T10:45:44.604Z,23.10
2018-07-19T10:48:12.660Z,23.00
2018-07-19T10:50:40.707Z,22.90
2018-07-19T10:53:08.755Z,22.80
2018-07-19T10:55:36.760Z,22.80
2018-07-19T10:58:04.845Z,22.90
2018-07-19T11:00:32.864Z,23.00
2018-07-19T11:05:28.724Z,23.10
2018-07-19T11:07:56.748Z,23.20
2018-07-19T11:10:24.784Z,23.20
2018-07-19T11:12:52.853Z,23.30
2018-07-19T11:15:20.892Z,23.30
2018-07-19T11:17:48.944Z,23.20
2018-07-19T11:20:16.974Z,23.30
2018-07-19T11:22:45.053Z,23.30
2018-07-19T11:25:13.044Z,23.40
2018-07-19T11:27:41.085Z,23.40
2018-07-19T11:30:09.120Z,23.50
2018-07-19T11:32:37.155Z,23.40
2018-07-19T11:35:05.176Z,23.50
2018-07-19T11:37:33.209Z,23.30
2018-07-19T11:42:29.091Z,23.50
2018-07-19T11:44:57.124Z,23.50
2018-07-19T11:47:25.165Z,23.50
2018-07-19T11:49:53.232Z,23.50
2018-07-19T11:52:21.224Z,23.70
2018-07-19T11:54:49.248Z,23.90
2018-07-19T11:57:17.295Z,23.80
2018-07-19T11:59:45.376Z,23.70
2018-07-19T12:02:13.483Z,23.50
2018-07-19T12:04:41.516Z,23.70
2018-07-19T12:07:09.540Z,23.80
2018-07-19T12:09:37.595Z,23.90
2018-07-19T12:12:05.745Z,24.00
2018-07-19T12:14:33.789Z,24.10
2018-07-19T12:17:01.824Z,24.20
2018-07-19T12:19:29.864Z,24.20
2018-07-19T12:21:58.044Z,24.00
2018-07-19T12:24:26.089Z,24.00
2018-07-19T12:26:54.128Z,24.20
2018-07-19T12:29:22.208Z,24.20
2018-07-19T12:31:50.257Z,24.30
2018-07-19T12:34:18.311Z,24.20
2018-07-19T12:36:46.397Z,24.10
2018-07-19T12:39:14.428Z,24.00
2018-07-19T12:41:42.715Z,24.00
2018-07-19T12:44:10.792Z,24.00
2018-07-19T12:46:39.261Z,23.90
2018-07-19T12:49:07.568Z,23.80
2018-07-19T12:51:35.812Z,23.60
2018-07-19T12:54:03.848Z,23.50
2018-07-19T12:56:31.884Z,23.40
2018-07-19T12:59:00.125Z,23.40
2018-07-19T13:01:28.168Z,23.40
2018-07-19T13:03:56.245Z,23.50
2018-07-19T13:06:24.548Z,23.70
2018-07-19T13:08:52.825Z,23.80
2018-07-19T13:11:20.869Z,23.70
2018-07-19T13:13:48.944Z,23.70
2018-07-19T13:16:16.989Z,23.60
2018-07-19T13:18:45.031Z,23.80
2018-07-19T13:21:13.060Z,23.70
2018-07-19T13:23:41.080Z,23.70
2018-07-19T13:26:09.134Z,23.80
2018-07-19T13:28:37.167Z,23.90
2018-07-19T13:31:05.245Z,23.80
2018-07-19T13:33:33.294Z,23.70
2018-07-19T13:36:01.505Z,23.80
2018-07-19T13:38:29.554Z,24.00
2018-07-19T13:40:57.592Z,23.90
2018-07-19T13:43:25.632Z,24.00
2018-07-19T13:48:21.570Z,23.90
2018-07-19T13:53:39.090Z,23.80
2018-07-19T13:56:08.038Z,23.80
2018-07-19T13:58:36.860Z,23.90
2018-07-19T14:01:05.044Z,23.90
2018-07-19T14:03:33.317Z,23.90
2018-07-19T14:06:01.793Z,24.00
2018-07-19T14:08:29.822Z,24.00
2018-07-19T14:10:57.844Z,24.00
2018-07-19T14:13:25.881Z,24.10
2018-07-19T14:15:54.392Z,24.10
2018-07-19T14:18:22.442Z,24.30
2018-07-19T14:20:50.932Z,24.30
2018-07-19T14:23:18.987Z,24.10
2018-07-19T14:25:47.042Z,23.90
2018-07-19T14:28:15.064Z,23.90
2018-07-19T14:30:43.089Z,24.00
2018-07-19T14:33:11.372Z,24.30
2018-07-19T14:35:39.876Z,24.20
2018-07-19T14:38:07.904Z,24.00
2018-07-19T14:40:35.955Z,24.00
2018-07-19T14:43:04.053Z,24.00
2018-07-19T14:45:32.075Z,23.90
2018-07-19T14:48:00.123Z,23.80
2018-07-19T14:50:28.175Z,23.80
2018-07-19T14:52:56.205Z,23.90
2018-07-19T14:55:24.288Z,23.90
2018-07-19T14:57:52.504Z,24.10
2018-07-19T15:00:20.518Z,24.10
2018-07-19T15:02:48.588Z,24.00
2018-07-19T15:05:16.634Z,24.10
2018-07-19T15:07:44.668Z,24.30
2018-07-19T15:10:12.680Z,24.30
2018-07-19T15:12:40.732Z,24.20
2018-07-19T15:15:08.908Z,24.20
2018-07-19T15:17:36.944Z,24.40
2018-07-19T15:20:05.020Z,24.40
2018-07-19T15:22:33.066Z,24.70
2018-07-19T15:25:01.156Z,24.90
2018-07-19T15:27:29.204Z,25.20
2018-07-19T15:29:57.247Z,25.60
2018-07-19T15:34:53.120Z,26.00
2018-07-19T15:37:21.160Z,26.00
2018-07-19T15:39:49.431Z,26.40
2018-07-19T15:44:45.366Z,27.10
2018-07-19T15:47:13.438Z,27.60
2018-07-19T15:49:41.492Z,29.30
2018-07-19T15:52:09.536Z,28.90
2018-07-19T15:54:37.643Z,28.20
2018-07-19T15:57:05.835Z,27.60
2018-07-19T15:59:33.936Z,27.80
2018-07-19T16:02:01.973Z,27.50
2018-07-19T16:06:57.974Z,27.70
2018-07-19T16:09:25.944Z,27.80
2018-07-19T16:11:54.191Z,27.50
2018-07-19T16:14:22.230Z,27.60
2018-07-19T16:19:18.148Z,27.70
2018-07-19T16:21:46.220Z,27.80
2018-07-19T16:24:14.268Z,28.20
2018-07-19T16:26:42.308Z,27.90
2018-07-19T16:29:10.360Z,27.30
2018-07-19T16:31:38.400Z,26.90
2018-07-19T16:34:06.461Z,27.40
2018-07-19T16:36:34.487Z,27.70
2018-07-19T16:39:02.584Z,27.50
2018-07-19T16:41:30.637Z,27.60
2018-07-19T16:43:58.694Z,27.60
2018-07-19T16:46:26.783Z,27.60
2018-07-19T16:48:54.812Z,27.50
2018-07-19T16:51:22.851Z,27.00
2018-07-19T16:53:50.905Z,27.10
2018-07-19T16:56:18.932Z,27.60
2018-07-19T16:58:46.963Z,27.80
2018-07-19T17:01:15.028Z,28.30
2018-07-19T17:03:43.096Z,28.60
2018-07-19T17:06:11.129Z,28.20
2018-07-19T17:08:39.153Z,27.70
2018-07-19T17:11:07.227Z,27.60
2018-07-19T17:13:35.280Z,27.00
2018-07-19T17:16:03.332Z,26.60
2018-07-19T17:18:31.364Z,26.40
2018-07-19T17:20:59.431Z,26.00
2018-07-19T17:23:27.531Z,25.80
2018-07-19T17:25:55.569Z,26.10
2018-07-19T17:28:23.596Z,26.30
2018-07-19T17:30:51.620Z,26.30
2018-07-19T17:33:19.647Z,26.50
2018-07-19T17:35:47.691Z,27.00
2018-07-19T17:38:15.719Z,27.00
2018-07-19T17:43:11.634Z,26.40
2018-07-19T17:45:39.683Z,26.10
2018-07-19T17:48:07.724Z,26.00
2018-07-19T17:50:35.760Z,25.70
2018-07-19T17:53:03.842Z,25.60
2018-07-19T17:55:31.908Z,25.50
2018-07-19T17:57:59.964Z,25.30
2018-07-19T18:00:28.020Z,25.10
2018-07-19T18:02:56.120Z,25.10
2018-07-19T18:05:24.194Z,25.10
2018-07-19T18:07:52.274Z,25.10
2018-07-19T18:10:20.320Z,25.20
2018-07-19T18:15:16.180Z,24.90
2018-07-19T18:17:44.204Z,24.70
2018-07-19T18:20:12.300Z,24.40
2018-07-19T18:22:40.292Z,24.40
2018-07-19T18:25:08.372Z,24.30
2018-07-19T18:27:36.931Z,24.10
2018-07-19T18:30:06.095Z,23.90
2018-07-19T18:32:34.117Z,23.60
2018-07-19T18:35:02.151Z,23.50
2018-07-19T18:39:58.058Z,23.10
2018-07-19T18:42:26.097Z,23.00
2018-07-19T18:44:54.132Z,22.90
2018-07-19T18:52:17.883Z,22.70
2018-07-19T18:54:46.187Z,22.60
2018-07-19T18:57:14.212Z,22.50
2018-07-19T18:59:42.249Z,22.40
2018-07-19T19:02:10.296Z,22.30
2018-07-19T19:04:38.321Z,22.20
2018-07-19T19:07:06.349Z,22.00
2018-07-19T19:09:34.352Z,21.90
2018-07-19T19:12:02.390Z,21.70
2018-07-19T19:14:30.421Z,21.70
2018-07-19T19:16:58.441Z,21.50
2018-07-19T19:19:27.384Z,21.40
2018-07-19T19:21:55.460Z,21.30
2018-07-19T19:24:23.446Z,21.20
2018-07-19T19:26:51.496Z,21.20
2018-07-19T19:29:19.788Z,21.10
2018-07-19T19:31:47.832Z,21.10
2018-07-19T19:34:15.907Z,21.00
2018-07-19T19:36:44.009Z,20.90
2018-07-19T19:39:13.484Z,20.80
2018-07-19T19:41:41.987Z,20.70
2018-07-19T19:44:10.681Z,20.70
2018-07-19T19:46:38.668Z,20.60
2018-07-19T19:49:06.711Z,20.60
2018-07-19T19:51:34.748Z,20.50
2018-07-19T19:54:02.805Z,20.50
2018-07-19T19:56:30.844Z,20.40
2018-07-19T19:58:58.880Z,20.40
2018-07-19T20:01:26.900Z,20.30
2018-07-19T20:03:54.931Z,20.20
2018-07-19T20:06:22.959Z,20.20
2018-07-19T20:08:50.984Z,20.10
2018-07-19T20:11:19.016Z,20.00
2018-07-19T20:13:47.057Z,20.00
2018-07-19T20:16:15.123Z,20.00
2018-07-19T20:18:43.232Z,20.00
2018-07-19T20:21:11.272Z,19.90
2018-07-19T20:23:39.324Z,19.90
2018-07-19T20:26:07.368Z,19.90
2018-07-19T20:28:35.428Z,19.90
2018-07-19T20:31:03.424Z,19.90
2018-07-19T20:35:59.291Z,19.80
2018-07-19T20:38:27.316Z,19.80
2018-07-19T20:40:55.405Z,19.80
2018-07-19T20:45:51.515Z,19.80
2018-07-19T20:48:19.536Z,19.70
2018-07-19T20:50:47.590Z,19.70
2018-07-19T20:53:15.624Z,19.70
2018-07-19T20:55:43.664Z,19.50
2018-07-19T20:58:11.692Z,19.50
2018-07-19T21:03:07.552Z,19.40
2018-07-19T21:05:35.791Z,19.40
2018-07-19T21:08:03.828Z,19.40
2018-07-19T21:10:31.856Z,19.30
2018-07-19T21:12:59.881Z,19.30
2018-07-19T21:15:27.895Z,19.30
2018-07-19T21:17:55.909Z,19.20
2018-07-19T21:20:23.946Z,19.10
2018-07-19T21:22:51.992Z,19.20
2018-07-19T21:25:20.033Z,19.10
2018-07-19T21:27:48.086Z,19.00
2018-07-19T21:30:16.091Z,18.90
2018-07-19T21:32:44.116Z,18.90
2018-07-19T21:35:12.183Z,18.80
2018-07-19T21:37:40.404Z,18.80
2018-07-19T21:42:36.305Z,18.70
2018-07-19T21:45:04.814Z,18.70
2018-07-19T21:47:32.837Z,18.60
2018-07-19T21:50:00.888Z,18.60
2018-07-19T21:52:28.903Z,18.70
2018-07-19T21:54:56.926Z,18.60
2018-07-19T21:57:24.946Z,18.60
2018-07-19T21:59:53.103Z,18.50
2018-07-19T22:02:21.136Z,18.50
2018-07-19T22:04:49.192Z,18.50
2018-07-19T22:09:45.058Z,18.30
2018-07-19T22:12:13.262Z,18.20
2018-07-19T22:14:41.304Z,18.20
2018-07-19T22:17:09.692Z,18.10
2018-07-19T22:19:37.733Z,18.10
2018-07-19T22:22:05.767Z,18.00
2018-07-19T22:24:33.800Z,18.00
2018-07-19T22:27:01.835Z,18.00
2018-07-19T22:29:29.898Z,17.90
2018-07-19T22:31:57.936Z,17.90
2018-07-19T22:34:25.984Z,17.90
2018-07-19T22:36:54.008Z,17.90
2018-07-19T22:39:22.024Z,17.90
2018-07-19T22:41:50.052Z,17.90
2018-07-19T22:44:18.103Z,17.90
2018-07-19T22:46:46.151Z,17.90
2018-07-19T22:49:14.191Z,17.90
2018-07-19T22:51:42.255Z,17.90
2018-07-19T22:54:10.292Z,17.90
2018-07-19T22:59:06.215Z,17.80
2018-07-19T23:01:34.269Z,17.90
2018-07-19T23:04:02.284Z,17.90
2018-07-19T23:06:30.300Z,17.80
2018-07-19T23:08:58.328Z,17.80
2018-07-19T23:11:26.343Z,17.70
2018-07-19T23:13:54.392Z,17.70
2018-07-19T23:16:22.403Z,17.60
2018-07-19T23:18:50.416Z,17.60
2018-07-19T23:21:18.432Z,17.50
2018-07-19T23:23:46.440Z,17.60
2018-07-19T23:26:14.454Z,17.50
2018-07-19T23:28:42.492Z,17.60
2018-07-19T23:31:10.564Z,17.50
2018-07-19T23:33:38.572Z,17.50
2018-07-19T23:36:09.820Z,17.40
2018-07-19T23:38:43.431Z,17.30
2018-07-19T23:41:16.364Z,17.20
2018-07-19T23:43:47.125Z,17.20
2018-07-19T23:46:19.522Z,17.20
2018-07-19T23:48:47.911Z,17.10
2018-07-19T23:51:15.899Z,17.00
2018-07-19T23:56:11.992Z,17.10
2018-07-19T23:58:40.049Z,17.00
